Time;durP1;ratioP1;P1;durP2;ratioP2;P2;SDS_P1;SDS_P2;PMS_P1;PMS_P2;Temp;Humidity;BMP_temperature;BMP_pressure;BME280_temperature;BME280_humidity;BME280_pressure;Samples;Min_cycle;Max_cycle;Signal;HPM_P1;HPM_P2
2022/06/11 00:00:39;;;;;;;5.23;3.00;;;19.60;99.90;;;;;;5071859;28;20421;-36
2022/06/11 00:03:05;;;;;;;4.73;2.67;;;19.60;99.90;;;;;;5071962;28;20935;-36
2022/06/11 00:05:30;;;;;;;3.07;2.80;;;19.60;99.90;;;;;;5071987;28;20195;-36
2022/06/11 00:07:57;;;;;;;3.17;2.87;;;19.60;99.90;;;;;;5071033;28;20188;-36
2022/06/11 00:10:23;;;;;;;2.60;2.40;;;19.50;99.90;;;;;;5071921;28;20188;-36
2022/06/11 00:12:48;;;;;;;5.47;3.10;;;19.50;99.90;;;;;;5071472;28;20459;-36
2022/06/11 00:15:15;;;;;;;3.20;2.90;;;19.60;99.90;;;;;;5071487;28;20424;-36
2022/06/11 00:17:41;;;;;;;4.80;3.30;;;19.60;99.90;;;;;;5070835;28;20189;-37
2022/06/11 00:20:08;;;;;;;5.23;3.50;;;19.50;99.90;;;;;;5070761;28;20427;-36
2022/06/11 00:22:34;;;;;;;6.17;3.40;;;19.50;99.90;;;;;;5067986;28;20431;-36
2022/06/11 00:25:00;;;;;;;6.07;2.73;;;19.50;99.90;;;;;;5071380;28;20423;-36
2022/06/11 00:27:26;;;;;;;3.30;2.70;;;19.50;99.90;;;;;;5070816;28;20232;-36
2022/06/11 00:29:52;;;;;;;5.23;3.30;;;19.50;99.90;;;;;;5071167;28;20832;-36
2022/06/11 00:32:19;;;;;;;4.33;2.90;;;19.50;99.90;;;;;;5071550;28;20428;-36
2022/06/11 00:34:45;;;;;;;3.70;3.20;;;19.50;99.90;;;;;;5071369;28;20431;-36
2022/06/11 00:37:13;;;;;;;3.70;3.00;;;19.50;99.90;;;;;;5070628;28;20423;-36
2022/06/11 00:39:40;;;;;;;4.40;2.97;;;19.50;99.90;;;;;;5071161;28;20199;-36
2022/06/11 00:42:14;;;;;;;5.13;2.90;;;19.50;99.90;;;;;;5071216;28;20441;-36
2022/06/11 00:44:39;;;;;;;3.87;3.03;;;19.50;99.90;;;;;;5071248;28;20921;-36
2022/06/11 00:47:08;;;;;;;6.10;3.00;;;19.50;99.90;;;;;;5070710;28;20431;-36
2022/06/11 00:49:43;;;;;;;4.37;2.43;;;19.50;99.90;;;;;;5071034;28;20177;-37
2022/06/11 00:52:21;;;;;;;3.27;2.87;;;19.40;99.90;;;;;;5071067;28;20505;-36
2022/06/11 00:55:12;;;;;;;3.40;2.70;;;19.40;99.90;;;;;;5069025;28;20462;-36
2022/06/11 00:57:59;;;;;;;3.30;3.00;;;19.40;99.90;;;;;;5055059;28;20471;-36
2022/06/11 01:00:33;;;;;;;2.97;2.63;;;19.40;99.90;;;;;;5059084;28;20848;-36
2022/06/11 01:02:59;;;;;;;7.60;3.13;;;19.40;99.90;;;;;;5055669;28;20444;-36
2022/06/11 01:05:38;;;;;;;3.70;3.23;;;19.40;99.90;;;;;;5064640;28;20431;-36
2022/06/11 01:08:40;;;;;;;5.03;3.17;;;19.40;99.90;;;;;;5069898;28;20443;-36
2022/06/11 01:11:43;;;;;;;4.10;2.93;;;19.40;99.90;;;;;;5070652;28;20426;-36
2022/06/11 01:14:33;;;;;;;4.53;3.17;;;19.40;99.90;;;;;;5070217;28;20458;-36
2022/06/11 01:17:29;;;;;;;5.07;3.17;;;19.40;99.90;;;;;;5069921;28;21160;-36
2022/06/11 01:20:10;;;;;;;5.00;3.00;;;19.40;99.90;;;;;;5070312;28;20601;-36
2022/06/11 01:23:01;;;;;;;4.17;2.83;;;19.30;99.90;;;;;;5065226;28;20430;-37
2022/06/11 01:26:02;;;;;;;4.37;2.90;;;19.30;99.90;;;;;;5070237;28;20453;-36
2022/06/11 01:29:17;;;;;;;3.43;3.10;;;19.30;99.90;;;;;;5060244;28;20461;-36
2022/06/11 01:32:05;;;;;;;4.30;2.80;;;19.30;99.90;;;;;;5050033;28;20473;-37
2022/06/11 01:34:40;;;;;;;5.10;3.23;;;19.30;99.90;;;;;;5069707;28;20491;-36
2022/06/11 01:37:14;;;;;;;5.07;3.43;;;19.30;99.90;;;;;;5068609;28;20476;-36
2022/06/11 01:39:57;;;;;;;4.87;3.00;;;19.20;99.90;;;;;;5070216;28;20443;-36
2022/06/11 01:42:30;;;;;;;4.27;3.27;;;19.20;99.90;;;;;;5070174;28;20427;-37
2022/06/11 01:45:28;;;;;;;4.30;3.00;;;19.20;99.90;;;;;;5069930;28;20970;-36
2022/06/11 01:47:55;;;;;;;4.83;3.67;;;19.20;99.90;;;;;;5069506;28;20988;-36
2022/06/11 01:50:25;;;;;;;4.63;3.03;;;19.10;99.90;;;;;;5069606;28;20466;-36
2022/06/11 01:52:53;;;;;;;4.70;3.03;;;19.20;99.90;;;;;;5070026;28;20446;-36
2022/06/11 01:55:36;;;;;;;5.03;2.93;;;19.20;99.90;;;;;;5068088;28;20465;-36
2022/06/11 01:58:13;;;;;;;3.50;3.20;;;19.20;99.90;;;;;;5055729;28;20427;-36
2022/06/11 02:00:46;;;;;;;4.53;3.17;;;19.10;99.90;;;;;;5070074;28;20476;-36
2022/06/11 02:03:33;;;;;;;3.70;3.30;;;19.10;99.90;;;;;;5070024;28;20431;-36
2022/06/11 02:06:21;;;;;;;2.60;2.40;;;19.10;99.90;;;;;;5068509;28;20447;-36
2022/06/11 02:08:56;;;;;;;3.50;3.20;;;19.10;99.90;;;;;;5068002;28;20426;-36
2022/06/11 02:11:37;;;;;;;7.00;3.13;;;19.10;99.90;;;;;;5069728;28;20460;-36
2022/06/11 02:14:23;;;;;;;4.30;3.07;;;19.10;99.90;;;;;;5069493;28;20542;-36
2022/06/11 02:17:08;;;;;;;4.73;3.17;;;19.00;99.90;;;;;;5069147;28;21139;-36
2022/06/11 02:19:41;;;;;;;4.67;3.20;;;19.00;99.90;;;;;;5069731;28;20415;-36
2022/06/11 02:22:25;;;;;;;3.60;3.30;;;19.00;99.90;;;;;;5065236;28;20485;-36
2022/06/11 02:25:06;;;;;;;3.70;3.17;;;18.90;99.90;;;;;;5069793;28;20564;-36
2022/06/11 02:27:34;;;;;;;4.87;4.37;;;18.90;99.90;;;;;;5069040;28;20427;-36
2022/06/11 02:30:00;;;;;;;4.70;4.27;;;18.90;99.90;;;;;;5069792;28;20427;-36
2022/06/11 02:32:30;;;;;;;6.30;4.60;;;18.90;99.90;;;;;;5069503;28;20427;-36
2022/06/11 02:35:03;;;;;;;7.20;4.23;;;18.90;99.90;;;;;;5069528;28;20419;-36
2022/06/11 02:37:38;;;;;;;6.40;4.53;;;18.80;99.90;;;;;;5068988;28;20494;-36
2022/06/11 02:40:15;;;;;;;4.60;3.17;;;18.80;99.90;;;;;;5069590;28;20484;-36
2022/06/11 02:42:41;;;;;;;5.50;3.17;;;18.80;99.90;;;;;;5069388;28;20454;-36
2022/06/11 02:45:10;;;;;;;8.53;3.40;;;18.80;99.90;;;;;;5067962;28;20435;-36
2022/06/11 02:47:37;;;;;;;4.13;3.33;;;18.80;99.90;;;;;;5069014;28;21025;-36
2022/06/11 02:50:03;;;;;;;4.33;2.83;;;18.80;99.90;;;;;;5073182;28;20452;-36
2022/06/11 02:52:30;;;;;;;5.33;3.30;;;18.80;99.90;;;;;;5073040;28;20434;-36
2022/06/11 02:54:55;;;;;;;4.53;3.47;;;18.80;99.90;;;;;;5072085;28;20962;-36
2022/06/11 02:57:24;;;;;;;4.07;3.40;;;18.80;99.90;;;;;;5063111;28;20470;-36
2022/06/11 02:59:51;;;;;;;6.90;3.33;;;18.80;99.90;;;;;;5068605;28;20848;-36
2022/06/11 03:02:18;;;;;;;4.03;3.30;;;18.70;99.90;;;;;;5073155;28;20423;-36
2022/06/11 03:04:44;;;;;;;3.47;3.17;;;18.70;99.90;;;;;;5060214;28;20461;-36
2022/06/11 03:07:10;;;;;;;6.33;3.40;;;18.60;99.90;;;;;;5055021;28;20942;-36
2022/06/11 03:09:41;;;;;;;3.73;2.97;;;18.50;99.90;;;;;;5063466;28;20177;-36
2022/06/11 03:12:10;;;;;;;4.83;3.00;;;18.40;99.90;;;;;;5063733;28;20797;-36
2022/06/11 03:14:36;;;;;;;3.60;3.00;;;18.40;99.90;;;;;;5072625;28;20556;-36
2022/06/11 03:17:04;;;;;;;3.93;3.53;;;18.30;99.90;;;;;;5070988;28;20430;-36
2022/06/11 03:19:29;;;;;;;3.47;3.17;;;18.30;99.90;;;;;;5072619;28;20433;-36
2022/06/11 03:21:56;;;;;;;8.37;3.43;;;18.30;99.90;;;;;;5066734;28;20423;-36
2022/06/11 03:24:27;;;;;;;7.27;3.40;;;18.30;99.90;;;;;;5069656;28;20201;-36
2022/06/11 03:26:54;;;;;;;3.80;3.50;;;18.30;99.90;;;;;;5051120;28;20469;-36
2022/06/11 03:29:21;;;;;;;6.60;3.20;;;18.30;99.90;;;;;;5070819;28;21166;-36
2022/06/11 03:31:47;;;;;;;5.47;3.60;;;18.20;99.90;;;;;;5072694;28;20419;-36
2022/06/11 03:34:14;;;;;;;4.43;2.80;;;18.20;99.90;;;;;;5072237;28;20459;-36
2022/06/11 03:36:40;;;;;;;4.93;3.37;;;18.10;99.90;;;;;;5071956;28;20428;-36
2022/06/11 03:39:06;;;;;;;4.13;2.87;;;18.10;99.90;;;;;;5072132;28;20434;-36
2022/06/11 03:41:33;;;;;;;3.47;2.60;;;18.00;99.90;;;;;;5072149;28;20442;-36
2022/06/11 03:43:59;;;;;;;3.50;3.20;;;18.00;99.90;;;;;;5063821;28;20430;-36
2022/06/11 03:46:24;;;;;;;3.63;3.27;;;18.10;99.90;;;;;;5056823;28;20907;-36
2022/06/11 03:48:51;;;;;;;4.47;3.20;;;18.00;99.90;;;;;;5069854;28;20196;-36
2022/06/11 03:51:18;;;;;;;4.43;3.13;;;18.10;99.90;;;;;;5072215;28;20458;-36
2022/06/11 03:53:46;;;;;;;4.20;3.03;;;18.10;99.90;;;;;;5071098;28;20459;-36
2022/06/11 03:56:12;;;;;;;4.53;3.00;;;18.10;99.90;;;;;;5071904;28;21115;-36
2022/06/11 03:58:40;;;;;;;3.40;2.87;;;18.20;99.90;;;;;;5045097;28;20790;-36
2022/06/11 04:01:16;;;;;;;5.77;4.10;;;18.20;99.90;;;;;;5071139;28;20979;-36
2022/06/11 04:03:50;;;;;;;3.37;3.07;;;18.20;99.90;;;;;;5072107;28;20469;-36
2022/06/11 04:06:19;;;;;;;4.20;3.10;;;18.20;99.90;;;;;;5071743;28;20480;-36
2022/06/11 04:08:45;;;;;;;4.50;3.20;;;18.10;99.90;;;;;;5071441;28;20785;-36
2022/06/11 04:11:12;;;;;;;5.43;3.30;;;18.10;99.90;;;;;;5071824;28;20442;-36
2022/06/11 04:13:41;;;;;;;3.73;3.00;;;18.10;99.90;;;;;;5071748;28;20300;-36
2022/06/11 04:16:16;;;;;;;4.40;4.00;;;18.10;99.90;;;;;;5071625;28;20412;-36
2022/06/11 04:18:47;;;;;;;4.57;3.30;;;18.10;99.90;;;;;;5071063;28;20422;-36
2022/06/11 04:21:13;;;;;;;7.07;3.50;;;18.10;99.90;;;;;;5067292;28;20419;-36
2022/06/11 04:23:41;;;;;;;5.40;3.33;;;18.10;99.90;;;;;;5071477;28;20428;-37
2022/06/11 04:26:11;;;;;;;5.23;3.00;;;18.10;99.90;;;;;;5071137;28;20953;-36
2022/06/11 04:28:37;;;;;;;5.17;3.30;;;18.10;99.90;;;;;;5070803;28;20435;-36
2022/06/11 04:31:05;;;;;;;4.80;3.13;;;18.20;99.90;;;;;;5071480;28;20802;-36
2022/06/11 04:33:31;;;;;;;4.00;3.43;;;18.20;99.90;;;;;;5069904;28;20467;-36
2022/06/11 04:35:57;;;;;;;5.77;3.23;;;18.20;99.90;;;;;;5071319;28;20422;-36
2022/06/11 04:38:23;;;;;;;4.80;3.47;;;18.30;99.90;;;;;;5070618;28;20416;-36
2022/06/11 04:40:49;;;;;;;5.63;3.20;;;18.30;99.90;;;;;;5071339;28;20204;-36
2022/06/11 04:43:15;;;;;;;4.70;3.13;;;18.30;99.90;;;;;;5071191;28;20500;-36
2022/06/11 04:45:41;;;;;;;3.20;3.00;;;18.30;99.90;;;;;;5071191;28;20189;-36
2022/06/11 04:48:07;;;;;;;5.70;2.93;;;18.30;99.90;;;;;;5070150;28;20419;-36
2022/06/11 04:50:34;;;;;;;3.40;3.10;;;18.40;99.90;;;;;;5051816;28;20440;-36
2022/06/11 04:53:00;;;;;;;4.80;2.77;;;18.40;99.90;;;;;;5051841;28;20212;-36
2022/06/11 04:55:25;;;;;;;4.00;3.33;;;18.50;99.90;;;;;;5051449;28;21115;-36
2022/06/11 04:57:51;;;;;;;4.83;2.80;;;18.60;99.90;;;;;;5049974;28;20437;-36
2022/06/11 05:00:22;;;;;;;3.27;2.97;;;18.70;99.90;;;;;;5070877;28;20243;-36
2022/06/11 05:02:48;;;;;;;4.67;3.20;;;18.70;99.90;;;;;;5070430;28;20195;-36
2022/06/11 05:05:14;;;;;;;4.33;3.40;;;18.80;99.90;;;;;;5070656;28;20432;-36
2022/06/11 05:07:41;;;;;;;4.33;3.17;;;18.90;99.90;;;;;;5068802;28;20423;-36
2022/06/11 05:10:09;;;;;;;3.10;2.80;;;19.00;99.90;;;;;;5070454;28;20656;-36
2022/06/11 05:12:34;;;;;;;5.00;3.80;;;19.10;99.90;;;;;;5068132;28;21150;-36
2022/06/11 05:15:01;;;;;;;3.23;2.93;;;19.20;99.90;;;;;;5059369;28;20477;-36
2022/06/11 05:17:26;;;;;;;4.50;3.57;;;19.30;99.90;;;;;;5055472;28;20190;-36
2022/06/11 05:19:52;;;;;;;4.27;3.13;;;19.40;99.90;;;;;;5058772;28;20953;-36
2022/06/11 05:22:18;;;;;;;5.30;3.10;;;19.50;99.90;;;;;;5065179;28;20450;-36
2022/06/11 05:24:44;;;;;;;4.63;3.27;;;19.60;99.90;;;;;;5069267;28;20214;-36
2022/06/11 05:27:15;;;;;;;3.63;2.93;;;19.70;99.90;;;;;;5069829;28;20177;-36
2022/06/11 05:30:00;;;;;;;5.40;3.80;;;19.70;99.90;;;;;;5060240;28;20625;-36
2022/06/11 05:32:29;;;;;;;4.10;3.10;;;19.80;99.90;;;;;;5067933;28;20423;-36
2022/06/11 05:34:57;;;;;;;4.80;3.33;;;20.00;99.90;;;;;;5070157;28;20411;-36
2022/06/11 05:37:23;;;;;;;5.00;3.93;;;20.10;99.90;;;;;;5069553;28;20493;-36
2022/06/11 05:39:50;;;;;;;6.97;4.17;;;20.30;99.90;;;;;;5070085;28;21039;-36
2022/06/11 05:42:17;;;;;;;5.90;3.80;;;20.40;99.90;;;;;;5069962;28;20465;-36
2022/06/11 05:44:43;;;;;;;5.10;3.37;;;20.40;99.90;;;;;;5070171;28;20431;-36
2022/06/11 05:47:11;;;;;;;4.37;3.80;;;20.50;99.90;;;;;;5069455;28;20463;-36
2022/06/11 05:49:41;;;;;;;4.93;4.30;;;20.30;99.90;;;;;;5070004;28;20427;-36
2022/06/11 05:52:17;;;;;;;6.50;3.90;;;20.10;99.90;;;;;;5070191;28;20763;-36
2022/06/11 05:54:45;;;;;;;4.87;4.17;;;20.00;99.90;;;;;;5068603;28;20465;-36
2022/06/11 05:57:14;;;;;;;6.10;3.77;;;20.00;99.90;;;;;;5061097;28;20448;-36
2022/06/11 05:59:46;;;;;;;4.83;3.63;;;19.80;99.90;;;;;;5064900;28;20419;-36
2022/06/11 06:02:16;;;;;;;3.60;3.13;;;19.80;99.90;;;;;;5057248;28;20429;-36
2022/06/11 06:04:42;;;;;;;5.97;3.97;;;19.80;99.90;;;;;;5048123;28;20458;-36
2022/06/11 06:07:08;;;;;;;6.07;3.27;;;19.70;99.90;;;;;;5056146;28;21102;-36
2022/06/11 06:09:35;;;;;;;4.17;3.63;;;19.70;99.90;;;;;;5060260;28;20989;-36
2022/06/11 06:12:02;;;;;;;3.50;2.90;;;19.60;99.90;;;;;;5048253;28;20431;-36
2022/06/11 06:14:27;;;;;;;4.57;3.17;;;19.50;99.90;;;;;;5053380;28;20463;-36
2022/06/11 06:16:53;;;;;;;7.10;3.77;;;19.40;99.90;;;;;;5053135;28;20432;-36
2022/06/11 06:19:19;;;;;;;5.73;3.00;;;19.40;99.90;;;;;;5052750;28;20234;-36
2022/06/11 06:21:45;;;;;;;5.70;3.27;;;19.40;99.90;;;;;;5063962;28;20536;-36
2022/06/11 06:24:10;;;;;;;3.50;3.00;;;19.40;99.90;;;;;;5064475;28;20201;-36
2022/06/11 06:26:37;;;;;;;5.63;3.33;;;19.40;99.90;;;;;;5051205;28;20431;-36
2022/06/11 06:29:04;;;;;;;4.10;3.67;;;19.50;99.90;;;;;;5060359;28;20517;-36
2022/06/11 06:31:30;;;;;;;4.50;3.43;;;19.50;99.90;;;;;;5073597;28;20433;-36
2022/06/11 06:34:00;;;;;;;5.83;3.43;;;19.40;99.90;;;;;;5073321;28;20447;-36
2022/06/11 06:36:28;;;;;;;5.53;3.10;;;19.50;99.90;;;;;;5060511;28;20462;-36
2022/06/11 06:38:55;;;;;;;6.07;3.43;;;19.50;99.90;;;;;;5067775;28;20751;-36
2022/06/11 06:41:22;;;;;;;3.77;3.37;;;19.50;99.90;;;;;;5053062;28;20826;-36
2022/06/11 06:43:48;;;;;;;4.20;3.50;;;19.60;99.90;;;;;;5053109;28;20427;-37
2022/06/11 06:46:15;;;;;;;10.13;3.87;;;19.60;99.90;;;;;;5053005;28;20594;-36
2022/06/11 06:48:43;;;;;;;4.77;3.80;;;19.60;99.90;;;;;;5050465;28;20494;-36
2022/06/11 06:51:09;;;;;;;8.90;2.97;;;19.60;99.90;;;;;;5051665;28;20440;-36
2022/06/11 06:53:40;;;;;;;4.47;3.13;;;19.70;99.90;;;;;;5051499;28;20812;-36
2022/06/11 06:56:06;;;;;;;3.67;3.33;;;19.70;99.90;;;;;;5053774;28;20444;-36
2022/06/11 06:58:33;;;;;;;5.50;4.20;;;19.60;99.90;;;;;;5050835;28;20428;-36
2022/06/11 07:00:59;;;;;;;4.30;3.50;;;19.70;99.90;;;;;;5053201;28;20443;-36
2022/06/11 07:03:25;;;;;;;10.87;3.73;;;19.60;99.90;;;;;;5061086;28;20428;-36
2022/06/11 07:05:50;;;;;;;4.33;3.63;;;19.70;99.90;;;;;;5072334;28;20189;-36
2022/06/11 07:08:17;;;;;;;5.50;3.37;;;19.70;99.90;;;;;;5072190;28;20260;-36
2022/06/11 07:10:52;;;;;;;3.77;3.37;;;19.70;99.90;;;;;;5055616;28;20186;-36
2022/06/11 07:13:19;;;;;;;3.90;3.23;;;19.70;99.90;;;;;;5046782;28;20499;-36
2022/06/11 07:15:48;;;;;;;3.73;2.90;;;19.70;99.90;;;;;;5072838;28;20431;-36
2022/06/11 07:18:20;;;;;;;3.80;3.23;;;19.80;99.90;;;;;;5071847;28;20430;-36
2022/06/11 07:20:47;;;;;;;4.00;3.20;;;19.80;99.90;;;;;;5068177;28;20416;-36
2022/06/11 07:23:21;;;;;;;4.83;3.40;;;19.90;99.90;;;;;;5056911;28;20433;-36
2022/06/11 07:25:50;;;;;;;7.27;3.80;;;19.90;99.90;;;;;;5055382;28;20419;-36
2022/06/11 07:28:25;;;;;;;3.00;2.70;;;20.00;99.90;;;;;;5054165;28;20420;-36
2022/06/11 07:30:52;;;;;;;7.97;3.63;;;20.00;99.90;;;;;;5032832;28;21112;-36
2022/06/11 07:33:22;;;;;;;6.80;3.83;;;20.10;99.90;;;;;;5055317;28;21131;-36
2022/06/11 07:35:49;;;;;;;7.90;4.37;;;20.20;99.90;;;;;;5071665;28;20442;-36
2022/06/11 07:38:16;;;;;;;6.53;4.20;;;20.30;99.90;;;;;;5070491;28;20427;-36
2022/06/11 07:40:42;;;;;;;5.43;4.07;;;20.30;99.90;;;;;;5061123;28;20775;-36
2022/06/11 07:43:08;;;;;;;7.30;4.80;;;20.30;99.90;;;;;;5053309;28;20424;-36
2022/06/11 07:45:39;;;;;;;4.60;4.10;;;20.20;99.90;;;;;;5052304;28;20190;-36
2022/06/11 07:48:05;;;;;;;6.33;3.80;;;20.10;99.90;;;;;;5048318;28;20428;-36
2022/06/11 07:50:38;;;;;;;4.50;3.87;;;20.10;99.90;;;;;;5050580;28;20431;-36
2022/06/11 07:53:05;;;;;;;7.50;4.43;;;20.00;99.90;;;;;;5053854;28;20456;-36
2022/06/11 07:55:31;;;;;;;7.00;4.83;;;19.90;99.90;;;;;;5051520;28;20459;-36
2022/06/11 07:57:57;;;;;;;7.77;5.30;;;19.80;99.90;;;;;;5052717;28;20425;-36
2022/06/11 08:00:27;;;;;;;5.63;4.67;;;19.80;99.90;;;;;;5072048;28;20925;-36
2022/06/11 08:02:52;;;;;;;6.00;5.03;;;19.80;99.90;;;;;;5071975;28;20431;-36
2022/06/11 08:05:19;;;;;;;6.20;5.57;;;19.80;99.90;;;;;;5070709;28;20458;-37
2022/06/11 08:07:45;;;;;;;6.03;5.40;;;19.70;99.90;;;;;;5061576;28;20186;-36
2022/06/11 08:10:12;;;;;;;6.10;5.20;;;19.70;99.90;;;;;;5049943;28;20440;-36
2022/06/11 08:12:38;;;;;;;6.40;5.00;;;19.70;99.90;;;;;;5054395;28;20201;-36
2022/06/11 08:15:04;;;;;;;7.20;5.83;;;19.80;99.90;;;;;;5071684;28;20427;-37
2022/06/11 08:17:31;;;;;;;5.60;5.10;;;19.90;99.90;;;;;;5071187;28;20184;-36
2022/06/11 08:19:57;;;;;;;6.37;4.47;;;20.10;99.90;;;;;;5056107;28;20523;-36
2022/06/11 08:22:23;;;;;;;9.00;8.00;;;20.30;99.90;;;;;;5053766;28;20428;-36
2022/06/11 08:24:49;;;;;;;10.17;9.17;;;20.40;99.90;;;;;;5058381;28;20419;-36
2022/06/11 08:27:15;;;;;;;10.97;10.07;;;20.50;99.90;;;;;;5052878;28;20221;-36
2022/06/11 08:29:41;;;;;;;11.97;10.77;;;20.50;99.90;;;;;;5062411;28;20278;-36
2022/06/11 08:32:07;;;;;;;11.50;10.50;;;20.50;99.90;;;;;;5070246;28;21024;-37
2022/06/11 08:34:38;;;;;;;12.10;10.80;;;20.50;99.90;;;;;;5071280;28;20350;-36
2022/06/11 08:37:04;;;;;;;10.80;9.90;;;20.50;99.90;;;;;;5070686;28;20512;-36
2022/06/11 08:39:30;;;;;;;9.10;8.30;;;20.50;99.90;;;;;;5070922;28;20475;-36
2022/06/11 08:41:59;;;;;;;8.83;7.83;;;20.60;99.90;;;;;;5071225;28;21170;-36
2022/06/11 08:44:27;;;;;;;9.63;8.50;;;20.60;99.90;;;;;;5071028;28;20216;-36
2022/06/11 08:46:55;;;;;;;8.00;7.20;;;20.60;99.90;;;;;;5070486;28;20439;-36
2022/06/11 08:49:41;;;;;;;8.93;8.13;;;20.70;99.90;;;;;;5070909;28;20443;-36
2022/06/11 08:52:11;;;;;;;8.23;7.53;;;20.70;99.90;;;;;;5064522;28;20464;-36
2022/06/11 08:54:42;;;;;;;7.60;7.00;;;20.70;99.90;;;;;;5050343;28;21001;-36
2022/06/11 08:57:33;;;;;;;7.90;7.10;;;20.70;99.90;;;;;;5057060;28;20450;-36
2022/06/11 09:00:17;;;;;;;7.33;6.63;;;20.80;99.90;;;;;;5059857;28;20448;-36
2022/06/11 09:03:01;;;;;;;7.17;6.30;;;20.90;99.90;;;;;;5052679;28;20877;-36
2022/06/11 09:06:04;;;;;;;6.10;5.60;;;21.00;99.90;;;;;;5042698;28;20519;-36
2022/06/11 09:08:40;;;;;;;7.13;6.47;;;21.30;99.90;;;;;;5048504;28;20988;-36
2022/06/11 09:11:36;;;;;;;6.60;6.10;;;21.60;99.90;;;;;;5051309;28;20474;-36
2022/06/11 09:14:20;;;;;;;9.00;6.63;;;21.70;99.90;;;;;;5048682;28;20490;-36
2022/06/11 09:17:31;;;;;;;6.73;6.23;;;21.70;99.90;;;;;;5045724;28;20516;-36
2022/06/11 09:20:33;;;;;;;6.10;5.60;;;21.80;99.90;;;;;;5049748;28;20436;-36
2022/06/11 09:23:24;;;;;;;6.63;6.07;;;21.70;99.90;;;;;;5044432;28;20473;-36
2022/06/11 09:26:21;;;;;;;6.40;5.90;;;21.60;99.90;;;;;;5048803;28;20416;-37
2022/06/11 09:29:12;;;;;;;8.37;5.97;;;21.60;99.90;;;;;;5056506;28;20594;-36
2022/06/11 09:31:59;;;;;;;6.10;5.50;;;21.70;99.90;;;;;;5054769;28;20486;-36
2022/06/11 09:34:39;;;;;;;4.97;4.50;;;21.80;99.90;;;;;;5045391;28;20558;-36
2022/06/11 09:37:15;;;;;;;4.43;4.13;;;21.90;99.90;;;;;;5068897;28;20506;-36
2022/06/11 09:39:43;;;;;;;8.30;4.50;;;22.00;99.90;;;;;;5068055;28;20930;-36
2022/06/11 09:42:18;;;;;;;4.93;4.43;;;22.00;99.90;;;;;;5069390;28;20944;-36
2022/06/11 09:44:52;;;;;;;8.53;4.30;;;22.10;99.90;;;;;;5069762;28;20433;-36
2022/06/11 09:47:29;;;;;;;7.30;5.00;;;22.20;99.90;;;;;;5068146;28;21000;-36
2022/06/11 09:50:17;;;;;;;6.10;4.73;;;22.20;99.90;;;;;;5069930;28;20913;-37
2022/06/11 09:52:57;;;;;;;5.57;4.60;;;22.10;99.90;;;;;;5069882;28;20473;-36
2022/06/11 09:56:01;;;;;;;5.63;3.70;;;22.10;99.90;;;;;;5069141;28;20439;-37
2022/06/11 09:58:39;;;;;;;5.00;4.33;;;22.10;99.90;;;;;;5032001;28;20431;-36
2022/06/11 10:01:12;;;;;;;4.93;4.10;;;22.10;99.90;;;;;;5067092;28;20514;-36
2022/06/11 10:04:09;;;;;;;3.97;3.67;;;22.10;99.90;;;;;;5069827;28;20427;-36
2022/06/11 10:06:46;;;;;;;3.40;3.20;;;22.20;99.90;;;;;;5069144;28;20515;-36
2022/06/11 10:09:32;;;;;;;3.63;3.20;;;22.30;99.90;;;;;;5069982;28;20841;-36
2022/06/11 10:12:01;;;;;;;3.90;3.00;;;22.40;99.90;;;;;;5065960;28;20471;-36
2022/06/11 10:14:33;;;;;;;4.80;3.40;;;22.50;99.90;;;;;;5049489;28;20467;-36
2022/06/11 10:17:21;;;;;;;4.10;2.80;;;22.70;99.90;;;;;;5068221;28;20788;-36
2022/06/11 10:19:51;;;;;;;3.20;2.90;;;22.80;99.90;;;;;;5048464;28;20460;-36
2022/06/11 10:22:26;;;;;;;5.00;3.87;;;22.80;99.90;;;;;;5053323;28;20440;-36
2022/06/11 10:25:15;;;;;;;9.63;3.10;;;22.80;99.90;;;;;;5054190;28;20514;-36
2022/06/11 10:27:48;;;;;;;3.47;3.17;;;22.80;99.90;;;;;;5045172;28;20428;-36
2022/06/11 10:30:37;;;;;;;10.93;4.20;;;22.80;99.90;;;;;;5048773;28;20451;-36
2022/06/11 10:33:13;;;;;;;3.20;2.90;;;22.90;99.90;;;;;;5051504;28;20543;-37
2022/06/11 10:35:44;;;;;;;7.27;4.23;;;22.90;99.90;;;;;;5060296;28;20403;-37
2022/06/11 10:38:10;;;;;;;4.10;3.60;;;23.00;99.90;;;;;;5053883;28;20495;-37
2022/06/11 10:40:45;;;;;;;3.87;3.40;;;23.10;99.90;;;;;;5047906;28;20523;-37
2022/06/11 10:43:24;;;;;;;3.67;3.10;;;23.10;99.90;;;;;;5053737;28;20182;-36
2022/06/11 10:45:50;;;;;;;5.67;4.50;;;23.00;99.90;;;;;;5053383;28;20431;-37
2022/06/11 10:48:23;;;;;;;4.07;3.40;;;23.00;99.90;;;;;;5055972;28;20962;-36
2022/06/11 10:50:49;;;;;;;4.53;4.23;;;23.00;99.90;;;;;;5051076;28;20190;-36
2022/06/11 10:53:35;;;;;;;4.07;3.67;;;23.00;99.90;;;;;;5045006;28;20473;-37
2022/06/11 10:56:06;;;;;;;4.40;3.43;;;23.00;99.90;;;;;;5048053;28;20776;-37
2022/06/11 10:58:46;;;;;;;3.13;2.93;;;22.80;99.90;;;;;;5052677;28;20427;-37
2022/06/11 11:01:18;;;;;;;5.07;3.20;;;22.90;99.90;;;;;;5050690;28;20412;-36
2022/06/11 11:03:48;;;;;;;3.97;3.67;;;23.10;99.90;;;;;;5056711;28;20439;-37
2022/06/11 11:06:32;;;;;;;3.80;3.50;;;23.10;99.90;;;;;;5053235;28;20440;-37
2022/06/11 11:09:18;;;;;;;3.50;3.20;;;23.00;99.90;;;;;;5049940;28;20816;-37
2022/06/11 11:11:47;;;;;;;4.13;3.73;;;22.90;99.90;;;;;;5058238;28;20419;-36
2022/06/11 11:14:19;;;;;;;4.00;3.53;;;22.90;99.90;;;;;;5054156;28;20499;-37
2022/06/11 11:16:51;;;;;;;3.80;3.50;;;22.90;99.90;;;;;;5059188;28;20781;-37
2022/06/11 11:19:24;;;;;;;4.90;3.67;;;23.00;99.90;;;;;;5068745;28;20440;-37
2022/06/11 11:22:05;;;;;;;4.23;3.77;;;23.20;99.90;;;;;;5067728;28;20419;-37
2022/06/11 11:24:41;;;;;;;5.20;4.50;;;23.40;99.90;;;;;;5062985;28;20458;-37
2022/06/11 11:27:28;;;;;;;4.43;4.13;;;23.60;99.90;;;;;;5047200;28;20475;-37
2022/06/11 11:30:14;;;;;;;4.50;4.10;;;23.70;99.90;;;;;;5059910;28;20424;-36
2022/06/11 11:32:41;;;;;;;3.83;3.50;;;23.70;99.90;;;;;;5058008;28;20429;-37
2022/06/11 11:35:24;;;;;;;4.80;3.50;;;23.70;99.90;;;;;;5057192;28;20436;-37
2022/06/11 11:38:02;;;;;;;3.83;3.43;;;23.80;99.90;;;;;;5058456;28;20465;-37
2022/06/11 11:40:31;;;;;;;4.63;3.60;;;24.00;99.90;;;;;;5060047;28;20438;-37
2022/06/11 11:43:06;;;;;;;4.27;3.13;;;24.10;99.90;;;;;;5058894;28;20417;-37
2022/06/11 11:45:47;;;;;;;4.57;4.17;;;24.20;99.90;;;;;;5054385;28;20450;-37
2022/06/11 11:48:22;;;;;;;3.60;3.30;;;24.30;99.90;;;;;;5052531;28;20416;-38
2022/06/11 11:50:50;;;;;;;3.80;3.50;;;24.40;99.90;;;;;;5059406;28;20768;-37
2022/06/11 11:53:26;;;;;;;3.70;3.30;;;24.40;99.90;;;;;;5072235;28;20467;-37
2022/06/11 11:56:19;;;;;;;3.73;3.43;;;24.40;99.90;;;;;;5071243;28;20453;-37
2022/06/11 11:59:09;;;;;;;3.93;3.10;;;24.50;99.90;;;;;;5049479;28;20412;-37
2022/06/11 12:01:35;;;;;;;5.27;3.77;;;24.50;99.90;;;;;;5039863;28;20482;-37
2022/06/11 12:04:16;;;;;;;3.83;3.20;;;24.40;99.90;;;;;;5051293;28;20535;-37
2022/06/11 12:07:01;;;;;;;4.80;3.43;;;24.20;99.90;;;;;;5055600;28;20478;-37
2022/06/11 12:09:33;;;;;;;5.03;3.70;;;24.00;99.90;;;;;;5061540;28;20424;-37
2022/06/11 12:12:14;;;;;;;5.03;3.83;;;23.90;99.90;;;;;;5052100;28;20432;-37
2022/06/11 12:14:54;;;;;;;4.23;3.83;;;23.70;99.90;;;;;;5055211;28;20473;-37
2022/06/11 12:17:25;;;;;;;3.50;3.20;;;23.70;99.90;;;;;;5051090;28;20435;-37
2022/06/11 12:19:56;;;;;;;4.50;3.80;;;23.60;99.90;;;;;;5056282;28;20425;-37
2022/06/11 12:22:37;;;;;;;3.73;3.53;;;23.70;99.90;;;;;;5051869;28;20432;-38
2022/06/11 12:25:04;;;;;;;5.37;3.93;;;23.70;99.90;;;;;;5050633;28;20479;-37
2022/06/11 12:27:39;;;;;;;3.80;3.50;;;23.70;99.90;;;;;;5067133;28;20803;-37
2022/06/11 12:30:23;;;;;;;5.23;3.90;;;23.70;99.90;;;;;;5071726;28;20414;-37
2022/06/11 12:32:49;;;;;;;3.67;3.33;;;23.90;99.90;;;;;;5052351;28;20420;-37
2022/06/11 12:35:22;;;;;;;3.90;3.37;;;24.00;99.90;;;;;;5051565;28;20434;-37
2022/06/11 12:37:59;;;;;;;3.60;3.00;;;24.10;99.90;;;;;;5058349;28;20415;-37
2022/06/11 12:40:38;;;;;;;3.20;2.90;;;24.20;99.90;;;;;;5071349;28;20410;-37
2022/06/11 12:43:32;;;;;;;3.90;2.93;;;24.30;99.90;;;;;;5071057;28;20419;-37
2022/06/11 12:46:36;;;;;;;5.13;3.30;;;24.10;99.90;;;;;;5071369;28;20434;-37
2022/06/11 12:49:16;;;;;;;3.30;3.00;;;24.10;99.90;;;;;;5070980;28;20450;-37
2022/06/11 12:52:16;;;;;;;41.33;8.13;;;24.10;99.90;;;;;;5071450;28;20573;-36
2022/06/11 12:55:08;;;;;;;60.90;10.90;;;24.20;99.90;;;;;;5069858;28;20470;-36
2022/06/11 12:57:59;;;;;;;10.47;3.80;;;24.40;99.90;;;;;;5059178;28;20433;-36
2022/06/11 13:00:28;;;;;;;5.00;3.10;;;24.60;99.90;;;;;;5059149;28;20423;-37
2022/06/11 13:03:25;;;;;;;3.23;2.93;;;24.60;99.90;;;;;;5065082;28;20470;-37
2022/06/11 13:06:26;;;;;;;4.37;3.90;;;24.70;99.90;;;;;;5053060;28;20456;-37
2022/06/11 13:09:04;;;;;;;5.73;3.43;;;24.70;99.90;;;;;;5052813;28;20497;-36
2022/06/11 13:11:57;;;;;;;8.03;3.30;;;24.70;99.90;;;;;;5053678;28;20466;-36
2022/06/11 13:14:40;;;;;;;3.67;2.93;;;24.70;99.90;;;;;;5065757;28;20481;-37
2022/06/11 13:17:28;;;;;;;2.87;2.67;;;24.80;99.90;;;;;;5050340;28;20906;-37